Pagrindinis puslapis
METAR-TAF:

METAR-TAF

Oro uostai :

Kiutahija, Turkija

platuma: 39-06-41N, ilguma: 30-07-48E, Aukštis: 1013 m

Dabartinis oras

Ataskaita buvo paskelbta 27 minutes, ne 17:50 UTC
Vėjas 16 kt iš Šiaurės/Šiaurės Rytų
Temperatūra 16°C
Drėgmė 72%
Slėgis 1021 hPa
Matomumas 10 km arba daugiau
nėra debesų žemiau 1500 m ir nėra kamuolinių lietaus debesų

METAR: LTBZ 151750Z 02016KT CAVOK 16/11 Q1021

Laikas: 21:17 (18:17 UTC)

Prognozė

Ataskaita buvo paskelbta 1 valandą ir 37 minutes, ne 16:40 UTC
Prognozė galioja nuo 15 metu 18 UTC su 16 metu 03 UTC
Vėjas 12 kt iš Šiaurės Rytų
Matomumas 10 km arba daugiau
nėra debesų žemiau 1500 m ir nėra kamuolinių lietaus debesų

TAF: LTBZ 151640Z 1518/1603 04012KT CAVOK

Orai ataskaitas ir orų prognozės (METAR, TAF).

turimą stotys yra geltonos ir raudonos taškus žemėlapyje.

Perkelti pele per norėdami pamatyti stoties vardą.

Tada spustelėkite, norėdami matyti oro stebėjimo ir prognozės.

Norėdami pakeisti žemėlapį: spustelėkite ant žalios mygtukų su juodo kryžiaus žemyn,; žalią mygtuką su brūkšneliu, jei norite nutolinti; arba žalių rodyklių gretimoms žemėlapius.


METAR-TAF: